createdAt,value
2023-03-05T00:01:33.651Z,100255.70
2023-03-05T00:04:04.094Z,100255.36
2023-03-05T00:06:33.538Z,100253.82
2023-03-05T00:09:02.463Z,100250.73
2023-03-05T00:11:31.780Z,100243.91
2023-03-05T00:14:03.580Z,100244.42
2023-03-05T00:16:32.245Z,100243.20
2023-03-05T00:19:01.726Z,100239.43
2023-03-05T00:21:38.525Z,100240.27
2023-03-05T00:24:11.072Z,100241.96
2023-03-05T00:26:40.376Z,100242.14
2023-03-05T00:29:09.428Z,100248.46
2023-03-05T00:31:38.476Z,100248.62
2023-03-05T00:34:11.152Z,100238.64
2023-03-05T00:36:41.275Z,100242.05
2023-03-05T00:39:09.779Z,100239.45
2023-03-05T00:41:38.336Z,100230.04
2023-03-05T00:44:07.113Z,100228.66
2023-03-05T00:46:35.897Z,100226.23
2023-03-05T00:49:04.724Z,100216.48
2023-03-05T00:51:33.824Z,100215.29
2023-03-05T00:54:04.016Z,100208.79
2023-03-05T00:56:32.693Z,100202.64
2023-03-05T00:59:01.315Z,100198.70
2023-03-05T01:01:29.555Z,100198.02
2023-03-05T01:03:59.703Z,100189.95
2023-03-05T01:06:29.577Z,100188.61
2023-03-05T01:08:59.274Z,100186.05
2023-03-05T01:11:27.411Z,100180.23
2023-03-05T01:13:55.497Z,100180.22
2023-03-05T01:16:23.877Z,100184.32
2023-03-05T01:18:52.256Z,100176.80
2023-03-05T01:21:22.126Z,100172.83
2023-03-05T01:23:50.232Z,100176.73
2023-03-05T01:26:18.293Z,100169.55
2023-03-05T01:28:46.522Z,100168.53
2023-03-05T01:31:14.698Z,100161.34
2023-03-05T01:33:42.932Z,100160.13
2023-03-05T01:36:17.042Z,100145.61
2023-03-05T01:38:47.634Z,100136.55
2023-03-05T01:41:17.530Z,100138.63
2023-03-05T01:43:48.373Z,100133.66
2023-03-05T01:46:16.953Z,100126.64
2023-03-05T01:48:53.291Z,100124.94
2023-03-05T01:51:25.728Z,100120.65
2023-03-05T01:53:58.165Z,100123.04
2023-03-05T01:56:29.402Z,100120.97
2023-03-05T01:59:03.758Z,100115.48
2023-03-05T02:01:37.514Z,100118.70
2023-03-05T02:04:08.910Z,100116.81
2023-03-05T02:06:38.772Z,100109.98
2023-03-05T02:09:06.890Z,100108.08
2023-03-05T02:11:36.341Z,100116.45
2023-03-05T02:14:07.784Z,100109.10
2023-03-05T02:16:39.090Z,100105.16
2023-03-05T02:19:10.847Z,100102.59
2023-03-05T02:21:42.620Z,100095.23
2023-03-05T02:24:16.458Z,100089.59
2023-03-05T02:26:46.928Z,100086.36
2023-03-05T02:29:20.095Z,100088.56
2023-03-05T02:31:48.321Z,100087.20
2023-03-05T02:34:16.710Z,100082.25
2023-03-05T02:36:44.870Z,100081.20
2023-03-05T02:39:13.683Z,100071.96
2023-03-05T02:41:42.059Z,100067.36
2023-03-05T02:44:10.159Z,100066.51
2023-03-05T02:46:38.717Z,100059.66
2023-03-05T02:49:06.827Z,100057.95
2023-03-05T02:51:35.080Z,100054.69
2023-03-05T02:54:03.740Z,100060.83
2023-03-05T02:56:32.226Z,100070.56
2023-03-05T02:59:02.366Z,100063.73
2023-03-05T03:01:30.875Z,100063.39
2023-03-05T03:03:59.432Z,100051.95
2023-03-05T03:06:27.809Z,100042.04
2023-03-05T03:08:55.984Z,100043.23
2023-03-05T03:11:24.223Z,100046.83
2023-03-05T03:13:52.395Z,100057.45
2023-03-05T03:16:20.837Z,100066.31
2023-03-05T03:18:49.106Z,100063.39
2023-03-05T03:21:23.188Z,100058.78
2023-03-05T03:23:51.498Z,100060.85
2023-03-05T03:26:19.707Z,100068.02
2023-03-05T03:28:47.832Z,100068.20
2023-03-05T03:31:16.269Z,100052.83
2023-03-05T03:33:45.350Z,100042.59
2023-03-05T03:36:14.004Z,100041.23
2023-03-05T03:38:43.300Z,100037.28
2023-03-05T03:41:11.392Z,100034.03
2023-03-05T03:43:39.421Z,100027.56
2023-03-05T03:46:08.162Z,100026.71
2023-03-05T03:48:36.664Z,100028.10
2023-03-05T03:51:06.684Z,100019.39
2023-03-05T03:53:35.041Z,100014.77
2023-03-05T03:56:03.654Z,100010.51
2023-03-05T03:58:32.263Z,100017.17
2023-03-05T04:01:01.012Z,100007.60
2023-03-05T04:03:29.096Z,100005.02
2023-03-05T04:05:57.164Z,100006.73
2023-03-05T04:08:25.437Z,100013.08
2023-03-05T04:10:53.515Z,100016.15
2023-03-05T04:13:21.915Z,100019.55
2023-03-05T04:15:50.486Z,100021.72
2023-03-05T04:18:18.749Z,100008.73
2023-03-05T04:20:46.887Z,100002.54
2023-03-05T04:23:15.256Z,99994.16
2023-03-05T04:25:43.751Z,99993.64
2023-03-05T04:28:12.829Z,99992.45
2023-03-05T04:30:40.952Z,99985.80
2023-03-05T04:33:08.997Z,99985.30
2023-03-05T04:35:37.440Z,99985.48
2023-03-05T04:38:05.714Z,99984.27
2023-03-05T04:40:34.115Z,99987.54
2023-03-05T04:43:02.251Z,99981.55
2023-03-05T04:45:30.740Z,99976.77
2023-03-05T04:47:58.802Z,99971.97
2023-03-05T04:50:26.926Z,99968.55
2023-03-05T04:52:55.070Z,99968.55
2023-03-05T04:55:23.164Z,99969.41
2023-03-05T04:57:51.196Z,99964.63
2023-03-05T05:00:19.717Z,99966.68
2023-03-05T05:02:50.103Z,99962.06
2023-03-05T05:05:21.389Z,99963.45
2023-03-05T05:07:49.823Z,99965.15
2023-03-05T05:10:17.883Z,99963.27
2023-03-05T05:12:45.913Z,99962.06
2023-03-05T05:15:14.431Z,99962.73
2023-03-05T05:17:42.615Z,99961.72
2023-03-05T05:20:14.318Z,99963.60
2023-03-05T05:22:43.011Z,99959.34
2023-03-05T05:25:11.647Z,99961.38
2023-03-05T05:27:40.316Z,99958.98
2023-03-05T05:30:09.667Z,99961.88
2023-03-05T05:32:37.685Z,99961.00
2023-03-05T05:35:06.344Z,99957.59
2023-03-05T05:37:34.854Z,99954.01
2023-03-05T05:40:05.833Z,99949.73
2023-03-05T05:42:34.594Z,99953.15
2023-03-05T05:45:03.349Z,99956.04
2023-03-05T05:47:31.472Z,99951.41
2023-03-05T05:49:59.557Z,99951.57
2023-03-05T05:52:27.924Z,99951.23
2023-03-05T05:54:56.052Z,99950.36
2023-03-05T05:57:25.277Z,99951.39
2023-03-05T05:59:53.401Z,99946.77
2023-03-05T06:02:21.755Z,99949.49
2023-03-05T06:04:49.934Z,99946.41
2023-03-05T06:07:18.196Z,99945.05
2023-03-05T06:09:46.210Z,99938.73
2023-03-05T06:12:14.357Z,99944.02
2023-03-05T06:14:42.738Z,99944.53
2023-03-05T06:17:12.871Z,99947.44
2023-03-05T06:19:43.542Z,99941.61
2023-03-05T06:22:11.938Z,99944.86
2023-03-05T06:24:39.981Z,99936.32
2023-03-05T06:27:08.206Z,99938.20
2023-03-05T06:29:36.266Z,99935.14
2023-03-05T06:32:04.747Z,99940.27
2023-03-05T06:34:32.942Z,99938.04
2023-03-05T06:37:01.012Z,99934.12
2023-03-05T06:39:30.476Z,99940.98
2023-03-05T06:41:58.650Z,99937.75
2023-03-05T06:44:26.894Z,99936.39
2023-03-05T06:46:54.967Z,99936.90
2023-03-05T06:49:23.216Z,99935.88
2023-03-05T06:51:51.255Z,99933.16
2023-03-05T06:54:19.383Z,99934.02
2023-03-05T06:56:47.746Z,99934.70
2023-03-05T06:59:16.861Z,99933.35
2023-03-05T07:01:45.900Z,99933.36
2023-03-05T07:04:15.088Z,99929.59
2023-03-05T07:06:43.514Z,99929.09
2023-03-05T07:09:15.120Z,99925.00
2023-03-05T07:11:43.867Z,99927.57
2023-03-05T07:14:12.451Z,99929.46
2023-03-05T07:16:40.534Z,99928.11
2023-03-05T07:19:11.080Z,99927.94
2023-03-05T07:21:40.103Z,99925.73
2023-03-05T07:24:09.114Z,99927.11
2023-03-05T07:26:37.520Z,99926.79
2023-03-05T07:29:05.622Z,99921.67
2023-03-05T07:31:33.843Z,99921.01
2023-03-05T07:34:03.902Z,99920.17
2023-03-05T07:36:35.072Z,99922.40
2023-03-05T07:39:05.342Z,99922.07
2023-03-05T07:41:33.947Z,99925.34
2023-03-05T07:44:02.278Z,99926.52
2023-03-05T07:46:32.795Z,99924.33
2023-03-05T07:49:01.165Z,99920.55
2023-03-05T07:51:29.865Z,99923.31
2023-03-05T07:53:59.224Z,99917.69
2023-03-05T07:56:35.461Z,99913.92
2023-03-05T07:59:09.219Z,99913.59
2023-03-05T08:01:38.336Z,99919.58
2023-03-05T08:04:08.456Z,99910.35
2023-03-05T08:06:40.008Z,99916.84
2023-03-05T08:09:08.223Z,99915.48
2023-03-05T08:11:36.352Z,99925.23
2023-03-05T08:14:04.931Z,99924.05
2023-03-05T08:16:33.213Z,99914.64
2023-03-05T08:19:02.254Z,99918.92
2023-03-05T08:21:35.728Z,99909.85
2023-03-05T08:24:08.581Z,99925.44
2023-03-05T08:26:38.619Z,99901.48
2023-03-05T08:29:08.786Z,99902.52
2023-03-05T08:31:38.098Z,99919.29
2023-03-05T08:34:07.003Z,99903.17
2023-03-05T08:36:35.191Z,99912.09
2023-03-05T08:39:04.805Z,99890.85
2023-03-05T08:41:33.497Z,99897.88
2023-03-05T08:44:01.880Z,99892.89
2023-03-05T08:46:30.532Z,99901.29
2023-03-05T08:48:58.686Z,99898.54
2023-03-05T08:51:27.541Z,99892.36
2023-03-05T08:53:58.296Z,99891.67
2023-03-05T08:56:28.840Z,99882.09
2023-03-05T08:58:57.338Z,99888.43
2023-03-05T09:01:25.580Z,99891.66
2023-03-05T09:03:54.375Z,99901.08
2023-03-05T09:06:22.874Z,99894.40
2023-03-05T09:08:51.168Z,99887.56
2023-03-05T09:11:19.769Z,99886.02
2023-03-05T09:13:48.144Z,99881.72
2023-03-05T09:16:18.375Z,99873.84
2023-03-05T09:18:47.313Z,99872.80
2023-03-05T09:21:18.115Z,99881.20
2023-03-05T09:23:47.411Z,99871.26
2023-03-05T09:26:19.504Z,99893.17
2023-03-05T09:28:48.508Z,99879.13
2023-03-05T09:31:17.513Z,99885.10
2023-03-05T09:33:47.398Z,99898.98
2023-03-05T09:36:25.204Z,99896.73
2023-03-05T09:38:53.857Z,99885.59
2023-03-05T09:41:37.050Z,99896.20
2023-03-05T09:44:38.917Z,99892.09
2023-03-05T09:47:21.704Z,99918.80
2023-03-05T09:49:59.928Z,99900.64
2023-03-05T09:52:44.280Z,99901.64
2023-03-05T09:55:24.507Z,99909.33
2023-03-05T09:57:56.734Z,99905.20
2023-03-05T10:00:34.296Z,99905.35
2023-03-05T10:03:10.615Z,99900.52
2023-03-05T10:05:58.068Z,99916.96
2023-03-05T10:08:33.198Z,99902.04
2023-03-05T10:11:06.956Z,99902.21
2023-03-05T10:13:40.602Z,99899.83
2023-03-05T10:16:45.191Z,99896.23
2023-03-05T10:19:33.318Z,99885.94
2023-03-05T10:22:22.877Z,99877.50
2023-03-05T10:24:55.537Z,99888.60
2023-03-05T10:27:52.028Z,99877.40
2023-03-05T10:30:58.858Z,99897.77
2023-03-05T10:33:35.719Z,99887.61
2023-03-05T10:36:15.371Z,99884.16
2023-03-05T10:38:57.186Z,99890.31
2023-03-05T10:41:40.559Z,99874.69
2023-03-05T10:44:18.205Z,99876.21
2023-03-05T10:46:48.611Z,99881.56
2023-03-05T10:49:32.978Z,99881.20
2023-03-05T10:52:22.631Z,99878.80
2023-03-05T10:54:51.240Z,99876.04
2023-03-05T10:57:28.259Z,99877.60
2023-03-05T11:00:05.717Z,99878.28
2023-03-05T11:02:52.456Z,99886.69
2023-03-05T11:05:49.073Z,99874.83
2023-03-05T11:08:27.758Z,99898.37
2023-03-05T11:11:08.145Z,99877.13
2023-03-05T11:13:53.033Z,99870.27
2023-03-05T11:16:29.079Z,99860.48
2023-03-05T11:19:24.669Z,99857.08
2023-03-05T11:22:19.350Z,99851.48
2023-03-05T11:25:10.795Z,99861.27
2023-03-05T11:27:51.021Z,99854.04
2023-03-05T11:30:31.517Z,99842.12
2023-03-05T11:33:22.929Z,99848.20
2023-03-05T11:35:54.082Z,99865.33
2023-03-05T11:38:27.770Z,99856.35
2023-03-05T11:40:57.376Z,99847.30
2023-03-05T11:43:26.399Z,99850.13
2023-03-05T11:46:02.222Z,99845.95
2023-03-05T11:48:39.906Z,99854.29
2023-03-05T11:51:57.573Z,99839.85
2023-03-05T11:54:53.781Z,99828.73
2023-03-05T11:57:24.195Z,99829.71
2023-03-05T11:59:55.536Z,99827.45
2023-03-05T12:02:26.836Z,99837.70
2023-03-05T12:04:56.398Z,99835.23
2023-03-05T12:07:41.920Z,99832.94
2023-03-05T12:10:36.497Z,99832.65
2023-03-05T12:13:06.872Z,99834.34
2023-03-05T12:16:01.998Z,99827.98
2023-03-05T12:18:47.401Z,99830.33
2023-03-05T12:21:26.190Z,99830.95
2023-03-05T12:24:01.696Z,99827.08
2023-03-05T12:27:04.688Z,99818.20
2023-03-05T12:29:32.845Z,99831.94
2023-03-05T12:32:01.596Z,99825.23
2023-03-05T12:34:43.028Z,99826.23
2023-03-05T12:37:11.505Z,99822.54
2023-03-05T12:39:52.911Z,99838.23
2023-03-05T12:42:30.085Z,99817.97
2023-03-05T12:45:10.631Z,99795.27
2023-03-05T12:47:40.669Z,99789.98
2023-03-05T12:50:27.874Z,99804.79
2023-03-05T12:52:58.640Z,99815.96
2023-03-05T12:55:41.109Z,99821.93
2023-03-05T12:58:15.140Z,99810.06
2023-03-05T13:00:49.665Z,99802.34
2023-03-05T13:03:31.373Z,99802.09
2023-03-05T13:06:01.114Z,99802.75
2023-03-05T13:08:37.374Z,99799.31
2023-03-05T13:11:18.879Z,99803.63
2023-03-05T13:13:48.496Z,99806.27
2023-03-05T13:16:20.904Z,99794.29
2023-03-05T13:18:50.762Z,99790.69
2023-03-05T13:21:21.529Z,99789.88
2023-03-05T13:24:01.051Z,99789.63
2023-03-05T13:26:40.590Z,99805.85
2023-03-05T13:29:14.677Z,99799.25
2023-03-05T13:31:46.023Z,99803.70
2023-03-05T13:34:46.251Z,99784.61
2023-03-05T13:37:20.117Z,99785.00
2023-03-05T13:39:56.814Z,99773.17
2023-03-05T13:42:28.796Z,99785.88
2023-03-05T13:44:59.542Z,99774.70
2023-03-05T13:47:30.883Z,99795.25
2023-03-05T13:50:05.957Z,99788.71
2023-03-05T13:52:37.378Z,99778.10
2023-03-05T13:55:13.343Z,99770.10
2023-03-05T13:57:47.559Z,99772.10
2023-03-05T14:00:28.028Z,99779.90
2023-03-05T14:03:00.775Z,99780.33
2023-03-05T14:05:31.433Z,99776.86
2023-03-05T14:07:59.891Z,99779.14
2023-03-05T14:10:37.724Z,99777.83
2023-03-05T14:13:13.570Z,99772.23
2023-03-05T14:15:42.016Z,99774.28
2023-03-05T14:18:13.372Z,99777.91
2023-03-05T14:21:02.776Z,99787.50
2023-03-05T14:23:45.862Z,99788.02
2023-03-05T14:26:28.814Z,99790.37
2023-03-05T14:29:00.423Z,99780.58
2023-03-05T14:31:31.457Z,99780.63
2023-03-05T14:34:06.204Z,99778.48
2023-03-05T14:36:34.969Z,99789.38
2023-03-05T14:39:03.610Z,99780.66
2023-03-05T14:41:41.278Z,99780.95
2023-03-05T14:44:14.874Z,99783.66
2023-03-05T14:46:48.167Z,99776.19
2023-03-05T14:49:17.345Z,99777.90
2023-03-05T14:51:46.766Z,99789.61
2023-03-05T14:54:27.044Z,99783.91
2023-03-05T14:56:55.434Z,99776.68
2023-03-05T14:59:23.532Z,99769.00
2023-03-05T15:01:52.086Z,99774.35
2023-03-05T15:04:20.430Z,99768.14
2023-03-05T15:06:51.278Z,99768.92
2023-03-05T15:09:21.432Z,99789.82
2023-03-05T15:11:49.725Z,99791.57
2023-03-05T15:14:17.908Z,99781.26
2023-03-05T15:16:46.728Z,99764.63
2023-03-05T15:19:15.017Z,99771.01
2023-03-05T15:21:43.123Z,99780.62
2023-03-05T15:24:15.061Z,99784.85
2023-03-05T15:26:43.452Z,99785.58
2023-03-05T15:29:11.541Z,99773.84
2023-03-05T15:31:40.631Z,99769.48
2023-03-05T15:34:11.457Z,99772.31
2023-03-05T15:36:39.555Z,99767.09
2023-03-05T15:39:07.737Z,99773.55
2023-03-05T15:41:35.870Z,99771.15
2023-03-05T15:44:04.124Z,99770.91
2023-03-05T15:46:33.306Z,99775.50
2023-03-05T15:49:02.740Z,99766.98
2023-03-05T15:51:30.829Z,99774.39
2023-03-05T15:53:59.054Z,99770.92
2023-03-05T15:56:27.218Z,99770.30
2023-03-05T15:58:55.377Z,99770.40
2023-03-05T16:01:23.694Z,99773.14
2023-03-05T16:03:52.993Z,99778.27
2023-03-05T16:06:24.020Z,99774.61
2023-03-05T16:08:58.869Z,99774.25
2023-03-05T16:11:28.117Z,99774.84
2023-03-05T16:13:57.025Z,99774.86
2023-03-05T16:16:25.478Z,99776.59
2023-03-05T16:18:53.822Z,99776.80
2023-03-05T16:21:22.072Z,99774.42
2023-03-05T16:23:50.364Z,99778.64
2023-03-05T16:26:19.185Z,99774.83
2023-03-05T16:28:48.385Z,99778.20
2023-03-05T16:31:16.476Z,99779.35
2023-03-05T16:33:44.619Z,99777.72
2023-03-05T16:36:21.016Z,99776.25
2023-03-05T16:38:51.741Z,99777.19
2023-03-05T16:41:22.521Z,99774.34
2023-03-05T16:43:59.218Z,99775.05
2023-03-05T16:46:29.626Z,99771.14
2023-03-05T16:48:58.455Z,99778.38
2023-03-05T16:51:27.266Z,99783.42
2023-03-05T16:53:56.069Z,99779.06
2023-03-05T16:56:24.669Z,99779.14
2023-03-05T16:58:56.148Z,99773.70
2023-03-05T17:01:24.812Z,99770.64
2023-03-05T17:03:53.724Z,99778.53
2023-03-05T17:06:26.501Z,99774.61
2023-03-05T17:08:55.886Z,99775.98
2023-03-05T17:11:25.918Z,99773.43
2023-03-05T17:13:54.475Z,99774.47
2023-03-05T17:16:23.154Z,99767.99
2023-03-05T17:18:51.328Z,99769.40
2023-03-05T17:21:19.622Z,99770.10
2023-03-05T17:23:48.289Z,99768.90
2023-03-05T17:26:18.878Z,99768.39
2023-03-05T17:28:47.162Z,99767.20
2023-03-05T17:31:15.701Z,99768.39
2023-03-05T17:33:44.040Z,99763.12
2023-03-05T17:36:17.675Z,99764.84
2023-03-05T17:38:47.713Z,99762.80
2023-03-05T17:41:17.469Z,99759.73
2023-03-05T17:43:46.544Z,99758.54
2023-03-05T17:46:16.064Z,99757.51
2023-03-05T17:48:44.382Z,99761.11
2023-03-05T17:51:16.827Z,99758.73
2023-03-05T17:53:45.124Z,99757.57
2023-03-05T17:56:16.931Z,99757.41
2023-03-05T17:58:44.981Z,99756.71
2023-03-05T18:01:25.803Z,99759.80
2023-03-05T18:03:54.724Z,99761.17
2023-03-05T18:06:23.238Z,99755.20
2023-03-05T18:08:52.342Z,99755.71
2023-03-05T18:11:21.114Z,99758.14
2023-03-05T18:13:49.477Z,99753.19
2023-03-05T18:16:18.382Z,99751.66
2023-03-05T18:18:46.912Z,99751.34
2023-03-05T18:21:24.968Z,99754.77
2023-03-05T18:23:53.754Z,99748.79
2023-03-05T18:26:22.202Z,99751.21
2023-03-05T18:28:50.336Z,99748.48
2023-03-05T18:31:19.518Z,99741.83
2023-03-05T18:33:48.136Z,99740.66
2023-03-05T18:36:17.153Z,99738.77
2023-03-05T18:38:45.412Z,99739.64
2023-03-05T18:41:22.850Z,99739.48
2023-03-05T18:43:51.313Z,99741.88
2023-03-05T18:46:19.757Z,99741.20
2023-03-05T18:48:48.248Z,99736.95
2023-03-05T18:51:22.061Z,99737.98
2023-03-05T18:53:52.076Z,99731.84
2023-03-05T18:56:21.008Z,99733.71
2023-03-05T18:58:49.658Z,99742.43
2023-03-05T19:01:18.902Z,99735.61
2023-03-05T19:03:47.824Z,99740.23
2023-03-05T19:06:17.803Z,99740.25
2023-03-05T19:08:47.217Z,99739.05
2023-03-05T19:11:28.133Z,99734.46
2023-03-05T19:13:58.607Z,99736.52
2023-03-05T19:16:32.440Z,99739.95
2023-03-05T19:19:20.503Z,99736.00
2023-03-05T19:21:53.591Z,99736.17
2023-03-05T19:24:24.264Z,99738.42
2023-03-05T19:26:55.631Z,99733.63
2023-03-05T19:29:25.449Z,99738.41
2023-03-05T19:31:54.544Z,99727.98
2023-03-05T19:34:22.910Z,99731.76
2023-03-05T19:36:51.263Z,99729.54
2023-03-05T19:39:19.972Z,99729.88
2023-03-05T19:41:48.446Z,99720.98
2023-03-05T19:44:17.443Z,99726.30
2023-03-05T19:46:48.597Z,99724.23
2023-03-05T19:49:17.533Z,99726.65
2023-03-05T19:51:46.490Z,99726.98
2023-03-05T19:54:17.218Z,99732.29
2023-03-05T19:56:47.117Z,99727.52
2023-03-05T19:59:18.016Z,99725.98
2023-03-05T20:01:46.150Z,99722.91
2023-03-05T20:04:18.691Z,99721.20
2023-03-05T20:06:47.433Z,99722.08
2023-03-05T20:09:16.386Z,99718.30
2023-03-05T20:11:45.740Z,99715.05
2023-03-05T20:14:14.817Z,99715.55
2023-03-05T20:16:43.551Z,99717.79
2023-03-05T20:19:17.607Z,99713.68
2023-03-05T20:21:46.199Z,99716.08
2023-03-05T20:24:17.100Z,99710.94
2023-03-05T20:26:47.230Z,99707.70
2023-03-05T20:29:18.286Z,99709.23
2023-03-05T20:31:50.214Z,99714.70
2023-03-05T20:34:19.806Z,99712.15
2023-03-05T20:36:48.066Z,99708.73
2023-03-05T20:39:16.394Z,99705.31
2023-03-05T20:41:44.839Z,99705.48
2023-03-05T20:44:14.239Z,99702.42
2023-03-05T20:47:41.074Z,99696.77
2023-03-05T20:50:10.293Z,99702.94
2023-03-05T20:52:38.657Z,99694.54
2023-03-05T20:55:08.186Z,99697.27
2023-03-05T20:57:36.650Z,99695.05
2023-03-05T21:00:06.214Z,99696.60
2023-03-05T21:02:34.680Z,99693.52
2023-03-05T21:05:03.227Z,99688.40
2023-03-05T21:07:31.530Z,99684.30
2023-03-05T21:09:59.688Z,99689.77
2023-03-05T21:12:28.974Z,99679.16
2023-03-05T21:14:57.310Z,99679.51
2023-03-05T21:17:26.557Z,99680.03
2023-03-05T21:19:54.660Z,99685.17
2023-03-05T21:22:22.734Z,99686.38
2023-03-05T21:25:21.079Z,99685.02
2023-03-05T21:28:02.193Z,99687.05
2023-03-05T21:30:37.288Z,99679.02
2023-03-05T21:33:08.914Z,99680.21
2023-03-05T21:35:38.184Z,99674.07
2023-03-05T21:38:07.908Z,99674.58
2023-03-05T21:40:40.006Z,99678.00
2023-03-05T21:43:08.319Z,99676.11
2023-03-05T21:45:36.462Z,99673.39
2023-03-05T21:48:04.888Z,99673.74
2023-03-05T21:50:35.781Z,99672.54
2023-03-05T21:53:03.945Z,99666.56
2023-03-05T21:56:37.241Z,99666.73
2023-03-05T21:59:05.372Z,99660.24
2023-03-05T22:01:33.584Z,99658.54
2023-03-05T22:04:02.000Z,99653.59
2023-03-05T22:06:31.448Z,99649.48
2023-03-05T22:08:59.499Z,99650.67
2023-03-05T22:11:28.093Z,99648.80
2023-03-05T22:13:57.042Z,99643.85
2023-03-05T22:16:27.119Z,99636.67
2023-03-05T22:18:55.268Z,99638.38
2023-03-05T22:21:29.015Z,99622.31
2023-03-05T22:23:58.369Z,99632.40
2023-03-05T22:26:35.499Z,99631.19
2023-03-05T22:29:04.652Z,99627.27
2023-03-05T22:31:33.028Z,99624.20
2023-03-05T22:34:01.187Z,99627.11
2023-03-05T22:36:29.729Z,99619.92
2023-03-05T22:38:58.033Z,99617.55
2023-03-05T22:41:26.268Z,99618.05
2023-03-05T22:43:54.528Z,99614.30
2023-03-05T22:46:25.487Z,99615.67
2023-03-05T22:48:53.989Z,99612.44
2023-03-05T22:51:22.090Z,99615.50
2023-03-05T22:53:50.253Z,99613.45
2023-03-05T22:56:19.763Z,99612.09
2023-03-05T22:58:48.395Z,99606.96
2023-03-05T23:01:23.596Z,99609.54
2023-03-05T23:04:31.858Z,99603.39
2023-03-05T23:07:23.812Z,99605.27
2023-03-05T23:09:53.290Z,99606.64
2023-03-05T23:12:23.238Z,99606.48
2023-03-05T23:14:51.292Z,99610.40
2023-03-05T23:17:19.786Z,99606.65
2023-03-05T23:19:48.244Z,99609.21
2023-03-05T23:22:16.343Z,99605.80
2023-03-05T23:24:44.543Z,99605.64
2023-03-05T23:27:15.618Z,99612.29
2023-03-05T23:30:17.153Z,99607.35
2023-03-05T23:32:51.099Z,99600.84
2023-03-05T23:35:31.869Z,99609.04
2023-03-05T23:38:01.576Z,99602.55
2023-03-05T23:40:35.481Z,99599.46
2023-03-05T23:43:04.289Z,99601.52
2023-03-05T23:45:32.492Z,99603.21
2023-03-05T23:48:01.460Z,99601.00
2023-03-05T23:50:35.491Z,99600.85
2023-03-05T23:53:04.413Z,99600.14
2023-03-05T23:55:40.834Z,99597.25
2023-03-05T23:58:09.266Z,99594.52
